createdAt,value
2023-05-15T00:02:18.181Z,99.90
2023-05-15T00:04:47.553Z,99.90
2023-05-15T00:07:14.306Z,99.90
2023-05-15T00:09:45.854Z,99.90
2023-05-15T00:12:12.636Z,99.90
2023-05-15T00:14:41.567Z,99.90
2023-05-15T00:17:08.730Z,99.90
2023-05-15T00:19:37.818Z,99.90
2023-05-15T00:22:04.737Z,99.90
2023-05-15T00:24:33.902Z,99.90
2023-05-15T00:27:05.506Z,99.90
2023-05-15T00:29:32.170Z,99.90
2023-05-15T00:31:59.015Z,99.90
2023-05-15T00:34:28.077Z,99.90
2023-05-15T00:36:54.854Z,99.90
2023-05-15T00:39:26.374Z,99.90
2023-05-15T00:41:54.948Z,99.90
2023-05-15T00:44:22.293Z,99.90
2023-05-15T00:46:51.820Z,99.90
2023-05-15T00:49:20.089Z,99.90
2023-05-15T00:51:46.736Z,99.90
2023-05-15T00:54:18.218Z,99.90
2023-05-15T00:56:50.885Z,99.90
2023-05-15T00:59:18.333Z,99.90
2023-05-15T01:01:45.344Z,99.90
2023-05-15T01:04:12.240Z,99.90
2023-05-15T01:06:38.922Z,99.90
2023-05-15T01:09:09.295Z,99.90
2023-05-15T01:11:39.502Z,99.90
2023-05-15T01:14:07.263Z,99.90
2023-05-15T01:16:35.859Z,99.90
2023-05-15T01:19:03.897Z,99.90
2023-05-15T01:21:37.412Z,99.90
2023-05-15T01:24:28.213Z,99.90
2023-05-15T01:27:24.147Z,99.90
2023-05-15T01:30:07.924Z,99.90
2023-05-15T01:32:42.966Z,99.90
2023-05-15T01:35:14.553Z,99.90
2023-05-15T01:37:45.665Z,99.90
2023-05-15T01:40:16.724Z,99.90
2023-05-15T01:42:56.182Z,99.90
2023-05-15T01:45:27.994Z,99.90
2023-05-15T01:47:59.309Z,99.90
2023-05-15T01:50:30.906Z,99.90
2023-05-15T01:52:59.934Z,99.90
2023-05-15T01:55:29.190Z,99.90
2023-05-15T01:57:57.741Z,99.90
2023-05-15T02:00:27.495Z,99.90
2023-05-15T02:02:57.870Z,99.90
2023-05-15T02:05:26.170Z,99.90
2023-05-15T02:07:53.619Z,99.90
2023-05-15T02:10:23.018Z,99.90
2023-05-15T02:12:50.435Z,99.90
2023-05-15T02:15:19.829Z,99.90
2023-05-15T02:17:46.729Z,99.90
2023-05-15T02:20:14.327Z,99.90
2023-05-15T02:22:41.029Z,99.90
2023-05-15T02:25:12.751Z,99.90
2023-05-15T02:28:00.679Z,99.90
2023-05-15T02:30:48.647Z,99.90
2023-05-15T02:33:42.226Z,99.90
2023-05-15T02:36:19.474Z,99.90
2023-05-15T02:38:53.359Z,99.90
2023-05-15T02:41:26.268Z,99.90
2023-05-15T02:43:55.231Z,99.90
2023-05-15T02:46:25.420Z,99.90
2023-05-15T02:48:55.639Z,99.90
2023-05-15T02:51:24.479Z,99.90
2023-05-15T02:53:52.327Z,99.90
2023-05-15T02:56:22.209Z,99.90
2023-05-15T02:58:49.692Z,99.90
2023-05-15T03:01:16.397Z,99.90
2023-05-15T03:06:10.151Z,99.90
2023-05-15T03:08:39.296Z,99.90
2023-05-15T03:11:06.093Z,99.90
2023-05-15T03:13:34.879Z,99.90
2023-05-15T03:16:01.638Z,99.90
2023-05-15T03:18:28.334Z,99.90
2023-05-15T03:20:55.134Z,99.90
2023-05-15T03:23:26.565Z,99.90
2023-05-15T03:33:19.548Z,99.90
2023-05-15T03:35:46.282Z,99.90
2023-05-15T03:38:15.354Z,99.90
2023-05-15T03:40:42.037Z,99.90
2023-05-15T03:43:11.498Z,99.90
2023-05-15T03:45:39.119Z,99.90
2023-05-15T03:48:06.194Z,99.90
2023-05-15T03:53:00.636Z,99.90
2023-05-15T03:55:27.961Z,99.90
2023-05-15T03:57:57.422Z,99.90
2023-05-15T04:00:24.706Z,99.90
2023-05-15T04:02:56.817Z,99.90
2023-05-15T04:05:28.592Z,99.90
2023-05-15T04:07:57.785Z,99.90
2023-05-15T04:12:52.658Z,99.90
2023-05-15T04:15:26.964Z,99.90
2023-05-15T04:20:24.864Z,99.90
2023-05-15T04:22:54.416Z,99.90
2023-05-15T04:25:21.526Z,99.90
2023-05-15T04:30:20.732Z,99.90
2023-05-15T04:35:17.949Z,99.90
2023-05-15T04:37:47.634Z,99.90
2023-05-15T04:42:44.357Z,99.90
2023-05-15T04:45:11.274Z,99.90
2023-05-15T04:47:38.541Z,99.90
2023-05-15T04:50:06.661Z,99.90
2023-05-15T04:52:36.118Z,99.90
2023-05-15T04:55:03.531Z,99.90
2023-05-15T05:02:25.439Z,99.90
2023-05-15T05:04:52.139Z,99.90
2023-05-15T05:07:21.388Z,99.90
2023-05-15T05:14:44.752Z,99.90
2023-05-15T05:17:11.603Z,99.90
2023-05-15T05:19:40.523Z,99.90
2023-05-15T05:24:37.579Z,99.90
2023-05-15T05:27:07.036Z,99.90
2023-05-15T05:32:01.363Z,99.90
2023-05-15T05:34:28.276Z,99.90
2023-05-15T05:36:55.171Z,99.90
2023-05-15T05:39:21.838Z,99.90
2023-05-15T05:41:48.594Z,99.90
2023-05-15T05:44:15.629Z,99.90
2023-05-15T05:46:45.492Z,99.90
2023-05-15T05:49:14.447Z,99.90
2023-05-15T05:51:41.384Z,99.90
2023-05-15T05:54:08.122Z,99.90
2023-05-15T05:56:34.923Z,99.90
2023-05-15T05:59:02.942Z,99.90
2023-05-15T06:06:26.630Z,99.90
2023-05-15T06:08:56.566Z,99.90
2023-05-15T06:11:25.850Z,99.90
2023-05-15T06:13:52.879Z,99.90
2023-05-15T06:16:19.734Z,99.90
2023-05-15T06:21:13.810Z,99.90
2023-05-15T06:23:41.162Z,99.90
2023-05-15T06:26:07.946Z,99.90
2023-05-15T06:28:34.748Z,99.90
2023-05-15T06:31:01.599Z,99.90
2023-05-15T06:33:28.370Z,99.90
2023-05-15T06:35:57.586Z,99.90
2023-05-15T06:38:24.297Z,99.90
2023-05-15T06:40:51.060Z,99.90
2023-05-15T06:45:44.910Z,99.90
2023-05-15T06:48:11.703Z,99.90
2023-05-15T06:50:38.476Z,99.90
2023-05-15T06:53:05.451Z,99.90
2023-05-15T06:55:38.464Z,99.90
2023-05-15T06:58:05.543Z,99.90
2023-05-15T07:02:59.470Z,99.40
2023-05-15T07:05:26.728Z,99.40
2023-05-15T07:07:53.750Z,97.80
2023-05-15T07:10:20.484Z,98.00
2023-05-15T07:12:49.337Z,98.10
2023-05-15T07:15:17.650Z,98.40
2023-05-15T07:17:46.602Z,98.60
2023-05-15T07:20:13.368Z,97.40
2023-05-15T07:22:51.925Z,97.90
2023-05-15T07:25:25.781Z,98.00
2023-05-15T07:32:52.679Z,96.90
2023-05-15T07:35:22.616Z,96.60
2023-05-15T07:37:49.450Z,96.50
2023-05-15T07:40:18.585Z,95.80
2023-05-15T07:42:45.861Z,95.60
2023-05-15T07:47:46.084Z,95.50
2023-05-15T07:50:15.972Z,95.80
2023-05-15T07:52:43.449Z,95.90
2023-05-15T07:55:13.306Z,95.10
2023-05-15T08:00:12.549Z,94.40
2023-05-15T08:02:46.530Z,94.50
2023-05-15T08:05:15.622Z,93.10
2023-05-15T08:07:42.679Z,93.50
2023-05-15T08:12:37.318Z,94.70
2023-05-15T08:15:04.336Z,93.80
2023-05-15T08:17:31.188Z,94.00
2023-05-15T08:22:30.295Z,94.80
2023-05-15T08:24:58.122Z,94.10
2023-05-15T08:27:26.963Z,93.50
2023-05-15T08:29:55.192Z,93.20
2023-05-15T08:34:49.677Z,94.10
2023-05-15T08:37:16.767Z,93.00
2023-05-15T08:42:37.245Z,91.20
2023-05-15T08:45:05.015Z,91.00
2023-05-15T08:47:38.853Z,91.00
2023-05-15T08:50:14.182Z,89.20
2023-05-15T08:52:48.126Z,92.10
2023-05-15T08:55:16.206Z,90.90
2023-05-15T08:57:46.960Z,90.20
2023-05-15T09:02:42.763Z,91.30
2023-05-15T09:05:10.544Z,90.80
2023-05-15T09:07:44.828Z,91.30
2023-05-15T09:10:13.378Z,90.80
2023-05-15T09:12:44.109Z,90.20
2023-05-15T09:15:15.995Z,91.20
2023-05-15T09:17:46.019Z,90.60
2023-05-15T09:20:35.861Z,90.40
2023-05-15T09:23:21.474Z,90.80
2023-05-15T09:25:56.626Z,91.00
2023-05-15T09:28:30.350Z,91.10
2023-05-15T09:31:05.112Z,90.50
2023-05-15T09:33:34.957Z,88.80
2023-05-15T09:36:05.808Z,87.90
2023-05-15T09:38:48.400Z,85.70
2023-05-15T09:41:15.284Z,85.20
2023-05-15T09:43:44.309Z,84.60
2023-05-15T09:46:15.991Z,83.90
2023-05-15T09:48:42.896Z,83.90
2023-05-15T09:51:18.232Z,85.60
2023-05-15T09:53:50.848Z,86.30
2023-05-15T09:56:20.181Z,84.40
2023-05-15T09:58:57.631Z,84.50
2023-05-15T10:01:27.653Z,87.20
2023-05-15T10:06:42.660Z,87.20
2023-05-15T10:09:11.166Z,84.40
2023-05-15T10:11:40.056Z,82.80
2023-05-15T10:14:11.913Z,81.40
2023-05-15T10:16:40.762Z,83.60
2023-05-15T10:19:12.088Z,81.20
2023-05-15T10:21:42.616Z,81.40
2023-05-15T10:24:10.742Z,81.40
2023-05-15T10:26:41.858Z,80.30
2023-05-15T10:29:12.290Z,80.30
2023-05-15T10:31:42.829Z,78.20
2023-05-15T10:34:10.810Z,77.50
2023-05-15T10:36:38.963Z,75.80
2023-05-15T10:41:38.913Z,76.80
2023-05-15T10:44:06.908Z,76.00
2023-05-15T10:46:36.874Z,75.90
2023-05-15T10:49:06.234Z,77.10
2023-05-15T10:51:33.467Z,76.10
2023-05-15T10:54:04.375Z,76.70
2023-05-15T10:56:34.812Z,75.90
2023-05-15T10:59:12.048Z,80.40
2023-05-15T11:01:40.895Z,78.10
2023-05-15T11:04:10.083Z,77.10
2023-05-15T11:06:39.073Z,76.00
2023-05-15T11:09:27.967Z,76.00
2023-05-15T11:12:03.277Z,75.20
2023-05-15T11:17:09.483Z,81.50
2023-05-15T11:19:49.907Z,82.70
2023-05-15T11:22:23.715Z,82.60
2023-05-15T11:30:26.617Z,75.80
2023-05-15T11:33:03.723Z,74.90
2023-05-15T11:35:42.097Z,69.40
2023-05-15T11:40:58.311Z,69.20
2023-05-15T11:43:27.266Z,68.30
2023-05-15T11:45:58.866Z,70.30
2023-05-15T11:48:31.509Z,68.20
2023-05-15T11:51:01.118Z,69.30
2023-05-15T11:53:32.109Z,71.10
2023-05-15T11:56:01.455Z,71.30
2023-05-15T11:58:30.304Z,73.60
2023-05-15T12:00:57.959Z,73.20
2023-05-15T12:03:36.129Z,73.00
2023-05-15T12:06:06.252Z,75.50
2023-05-15T12:08:34.549Z,75.00
2023-05-15T12:11:02.176Z,75.00
2023-05-15T12:13:32.565Z,79.20
2023-05-15T12:16:05.029Z,78.80
2023-05-15T12:18:35.503Z,81.60
2023-05-15T12:21:04.835Z,82.20
2023-05-15T12:23:32.565Z,81.00
2023-05-15T12:26:05.933Z,80.90
2023-05-15T12:28:35.275Z,80.20
2023-05-15T12:31:02.204Z,79.90
2023-05-15T12:33:31.375Z,80.90
2023-05-15T12:36:01.113Z,81.20
2023-05-15T12:38:31.256Z,82.00
2023-05-15T12:40:58.129Z,82.60
2023-05-15T12:43:28.503Z,82.80
2023-05-15T12:45:56.520Z,84.20
2023-05-15T12:48:23.706Z,84.00
2023-05-15T12:50:50.574Z,83.30
2023-05-15T12:53:17.630Z,84.20
2023-05-15T12:55:48.875Z,84.00
2023-05-15T12:58:18.788Z,84.60
2023-05-15T13:03:14.266Z,82.10
2023-05-15T13:05:49.680Z,84.30
2023-05-15T13:08:20.352Z,84.80
2023-05-15T13:10:56.022Z,85.20
2023-05-15T13:13:22.838Z,86.80
2023-05-15T13:15:50.617Z,85.60
2023-05-15T13:18:20.094Z,86.10
2023-05-15T13:20:51.344Z,88.30
2023-05-15T13:23:24.858Z,89.40
2023-05-15T13:25:51.678Z,89.90
2023-05-15T13:28:22.760Z,90.00
2023-05-15T13:30:49.477Z,90.60
2023-05-15T13:33:16.597Z,90.50
2023-05-15T13:35:45.940Z,90.70
2023-05-15T13:38:15.227Z,89.10
2023-05-15T13:40:41.993Z,89.90
2023-05-15T13:43:11.272Z,90.00
2023-05-15T13:48:07.463Z,89.80
2023-05-15T13:50:36.799Z,90.20
2023-05-15T13:53:03.698Z,90.40
2023-05-15T13:58:00.346Z,90.50
2023-05-15T14:00:27.246Z,91.00
2023-05-15T14:02:54.093Z,90.60
2023-05-15T14:05:23.048Z,90.30
2023-05-15T14:07:49.757Z,90.30
2023-05-15T14:10:18.703Z,90.60
2023-05-15T14:12:46.673Z,90.40
2023-05-15T14:15:16.041Z,90.50
2023-05-15T14:17:48.823Z,90.60
2023-05-15T14:20:15.704Z,90.40
2023-05-15T14:22:42.640Z,90.70
2023-05-15T14:25:11.970Z,90.60
2023-05-15T14:27:38.746Z,90.20
2023-05-15T14:30:06.214Z,89.40
2023-05-15T14:32:33.017Z,89.00
2023-05-15T14:35:00.111Z,88.20
2023-05-15T14:37:29.602Z,86.90
2023-05-15T14:39:56.385Z,84.40
2023-05-15T14:42:23.033Z,79.60
2023-05-15T14:44:49.736Z,79.50
2023-05-15T14:47:16.877Z,76.30
2023-05-15T14:49:43.608Z,74.60
2023-05-15T14:52:12.303Z,76.20
2023-05-15T14:54:39.826Z,77.90
2023-05-15T14:57:09.633Z,75.20
2023-05-15T14:59:36.499Z,75.80
2023-05-15T15:02:05.790Z,76.30
2023-05-15T15:04:35.179Z,76.30
2023-05-15T15:07:05.247Z,75.40
2023-05-15T15:09:34.519Z,75.70
2023-05-15T15:12:01.270Z,72.40
2023-05-15T15:14:30.566Z,73.00
2023-05-15T15:16:57.295Z,70.90
2023-05-15T15:21:53.515Z,71.00
2023-05-15T15:24:20.164Z,71.10
2023-05-15T15:26:49.575Z,71.00
2023-05-15T15:29:18.928Z,70.80
2023-05-15T15:31:47.792Z,69.40
2023-05-15T15:34:14.527Z,70.00
2023-05-15T15:36:41.484Z,67.20
2023-05-15T15:39:08.265Z,66.90
2023-05-15T15:41:37.748Z,70.20
2023-05-15T15:44:04.688Z,70.60
2023-05-15T15:46:31.458Z,72.30
2023-05-15T15:48:58.152Z,72.00
2023-05-15T15:51:29.713Z,71.00
2023-05-15T15:53:58.600Z,73.00
2023-05-15T15:56:29.888Z,73.30
2023-05-15T15:58:56.551Z,73.30
2023-05-15T16:01:30.556Z,73.00
2023-05-15T16:04:02.046Z,73.00
2023-05-15T16:06:28.832Z,73.50
2023-05-15T16:08:55.566Z,74.40
2023-05-15T16:11:22.436Z,73.40
2023-05-15T16:13:51.704Z,72.40
2023-05-15T16:16:18.596Z,72.30
2023-05-15T16:18:45.762Z,72.20
2023-05-15T16:21:16.039Z,72.20
2023-05-15T16:23:43.022Z,72.30
2023-05-15T16:26:12.903Z,71.60
2023-05-15T16:28:39.585Z,72.30
2023-05-15T16:31:09.349Z,73.60
2023-05-15T16:33:36.306Z,73.80
2023-05-15T16:36:06.001Z,72.90
2023-05-15T16:38:34.899Z,73.20
2023-05-15T16:41:03.785Z,73.10
2023-05-15T16:43:30.571Z,75.30
2023-05-15T16:46:02.502Z,75.80
2023-05-15T16:48:29.338Z,75.80
2023-05-15T16:50:56.112Z,74.70
2023-05-15T16:53:23.153Z,75.30
2023-05-15T16:55:50.711Z,75.20
2023-05-15T16:58:17.376Z,75.20
2023-05-15T17:00:44.295Z,76.00
2023-05-15T17:03:13.519Z,76.30
2023-05-15T17:05:41.126Z,77.30
2023-05-15T17:08:07.794Z,77.70
2023-05-15T17:10:34.617Z,78.20
2023-05-15T17:13:01.377Z,78.70
2023-05-15T17:15:28.313Z,79.30
2023-05-15T17:17:55.134Z,79.20
2023-05-15T17:20:22.010Z,81.20
2023-05-15T17:22:48.757Z,80.80
2023-05-15T17:25:15.643Z,80.60
2023-05-15T17:27:42.301Z,80.60
2023-05-15T17:30:10.663Z,80.40
2023-05-15T17:32:39.695Z,80.90
2023-05-15T17:35:08.076Z,80.90
2023-05-15T17:37:34.900Z,81.40
2023-05-15T17:40:01.623Z,81.80
2023-05-15T17:42:28.452Z,81.50
2023-05-15T17:44:56.465Z,82.70
2023-05-15T17:47:23.505Z,83.00
2023-05-15T17:49:52.405Z,83.70
2023-05-15T17:52:19.106Z,84.20
2023-05-15T17:54:47.983Z,84.70
2023-05-15T17:57:16.956Z,84.80
2023-05-15T17:59:45.877Z,85.40
2023-05-15T18:02:12.671Z,85.40
2023-05-15T18:04:39.394Z,85.70
2023-05-15T18:09:33.212Z,86.00
2023-05-15T18:11:59.921Z,87.20
2023-05-15T18:14:26.717Z,87.00
2023-05-15T18:16:58.327Z,87.00
2023-05-15T18:19:24.991Z,87.60
2023-05-15T18:21:53.806Z,87.40
2023-05-15T18:24:22.687Z,87.90
2023-05-15T18:26:49.395Z,88.40
2023-05-15T18:29:18.579Z,88.50
2023-05-15T18:31:49.751Z,89.10
2023-05-15T18:36:45.734Z,89.50
2023-05-15T18:41:44.426Z,90.40
2023-05-15T18:44:13.323Z,90.80
2023-05-15T18:46:40.101Z,91.10
2023-05-15T18:49:06.777Z,91.40
2023-05-15T18:51:33.452Z,91.60
2023-05-15T18:56:32.096Z,91.80
2023-05-15T18:59:00.951Z,92.20
2023-05-15T19:01:29.838Z,92.30
2023-05-15T19:03:56.842Z,92.70
2023-05-15T19:06:25.904Z,92.80
2023-05-15T19:11:19.763Z,92.80
2023-05-15T19:13:51.206Z,93.10
2023-05-15T19:16:20.163Z,93.30
2023-05-15T19:18:46.994Z,93.50
2023-05-15T19:21:15.679Z,93.50
2023-05-15T19:23:42.390Z,93.50
2023-05-15T19:26:11.458Z,93.90
2023-05-15T19:28:40.632Z,94.00
2023-05-15T19:31:24.131Z,94.00
2023-05-15T19:33:56.897Z,94.10
2023-05-15T19:36:23.937Z,94.50
2023-05-15T19:38:50.704Z,94.80
2023-05-15T19:41:19.859Z,95.10
2023-05-15T19:43:50.888Z,95.50
2023-05-15T19:46:20.972Z,95.70
2023-05-15T19:48:47.791Z,95.70
2023-05-15T19:51:14.664Z,95.50
2023-05-15T19:53:41.534Z,95.80
2023-05-15T19:56:10.424Z,96.20
2023-05-15T19:58:37.338Z,95.80
2023-05-15T20:01:04.274Z,96.00
2023-05-15T20:03:33.036Z,96.30
2023-05-15T20:06:01.260Z,96.20
2023-05-15T20:08:30.748Z,96.50
2023-05-15T20:10:57.956Z,96.80
2023-05-15T20:13:29.140Z,97.10
2023-05-15T20:15:57.897Z,97.30
2023-05-15T20:18:33.748Z,97.50
2023-05-15T20:21:01.564Z,97.60
2023-05-15T20:23:28.260Z,97.60
2023-05-15T20:25:54.982Z,97.60
2023-05-15T20:28:27.242Z,98.30
2023-05-15T20:31:01.786Z,98.40
2023-05-15T20:33:28.678Z,98.30
2023-05-15T20:38:25.519Z,98.70
2023-05-15T20:40:52.859Z,98.80
2023-05-15T20:45:49.502Z,99.10
2023-05-15T20:48:16.377Z,99.30
2023-05-15T20:50:46.083Z,99.50
2023-05-15T20:53:13.300Z,99.70
2023-05-15T20:55:42.327Z,99.90
2023-05-15T20:58:09.125Z,99.90
2023-05-15T21:00:38.172Z,99.90
2023-05-15T21:03:05.205Z,99.90
2023-05-15T21:05:32.493Z,99.90
2023-05-15T21:08:01.713Z,99.90
2023-05-15T21:10:28.787Z,99.90
2023-05-15T21:12:59.564Z,99.90
2023-05-15T21:15:26.372Z,99.90
2023-05-15T21:17:56.480Z,99.90
2023-05-15T21:20:23.220Z,99.90
2023-05-15T21:22:49.895Z,99.90
2023-05-15T21:25:19.048Z,99.90
2023-05-15T21:30:13.378Z,99.90
2023-05-15T21:32:42.615Z,99.90
2023-05-15T21:35:12.164Z,99.90
2023-05-15T21:37:38.887Z,99.90
2023-05-15T21:40:06.654Z,99.90
2023-05-15T21:42:33.411Z,99.90
2023-05-15T21:45:04.214Z,99.90
2023-05-15T21:47:32.227Z,99.90
2023-05-15T21:49:58.961Z,99.90
2023-05-15T21:52:25.584Z,99.90
2023-05-15T21:54:54.547Z,99.90
2023-05-15T21:57:24.299Z,99.90
2023-05-15T21:59:53.488Z,99.90
2023-05-15T22:02:20.322Z,99.90
2023-05-15T22:04:49.162Z,99.90
2023-05-15T22:07:18.005Z,99.90
2023-05-15T22:09:47.320Z,99.90
2023-05-15T22:12:16.341Z,99.90
2023-05-15T22:14:54.541Z,99.90
2023-05-15T22:17:27.004Z,99.90
2023-05-15T22:19:53.879Z,99.90
2023-05-15T22:22:20.915Z,99.90
2023-05-15T22:24:47.906Z,99.90
2023-05-15T22:27:19.697Z,99.90
2023-05-15T22:29:46.417Z,99.90
2023-05-15T22:32:13.078Z,99.90
2023-05-15T22:34:40.100Z,99.90
2023-05-15T22:37:06.849Z,99.90
2023-05-15T22:39:36.015Z,99.90
2023-05-15T22:42:07.002Z,99.90
2023-05-15T22:44:36.061Z,99.90
2023-05-15T22:47:05.576Z,99.90
2023-05-15T22:49:32.275Z,99.90
2023-05-15T22:51:59.276Z,99.90
2023-05-15T22:54:28.446Z,99.90
2023-05-15T22:56:57.825Z,99.90
2023-05-15T22:59:24.566Z,99.90
2023-05-15T23:01:51.413Z,99.90
2023-05-15T23:04:21.087Z,99.90
2023-05-15T23:06:50.899Z,99.90
2023-05-15T23:09:20.066Z,99.90
2023-05-15T23:11:46.766Z,99.90
2023-05-15T23:14:15.764Z,99.90
2023-05-15T23:16:45.142Z,99.90
2023-05-15T23:19:14.389Z,99.90
2023-05-15T23:21:43.292Z,99.90
2023-05-15T23:24:10.173Z,99.90
2023-05-15T23:26:36.900Z,99.90
2023-05-15T23:29:03.771Z,99.90
2023-05-15T23:31:30.577Z,99.90
2023-05-15T23:33:57.297Z,99.90
2023-05-15T23:36:23.955Z,99.90
2023-05-15T23:38:50.754Z,99.90
2023-05-15T23:41:19.669Z,99.90
2023-05-15T23:43:46.322Z,99.90
2023-05-15T23:46:13.285Z,99.90
2023-05-15T23:48:39.978Z,99.90
2023-05-15T23:51:06.718Z,99.90
2023-05-15T23:53:33.433Z,99.90
2023-05-15T23:56:00.187Z,99.90
2023-05-15T23:58:29.261Z,99.90
